Stanwood, Michigan
Current Conditions -  °F | °C
As of 6:54 AM on Saturday 25 Oct 2014 (Local Time) from KRQB Reporting Station
Overcast Overcast  
Wind Chill: 53°   Ceiling: 1000
Heat Index: 53°   Visibility: 7mi
Dew Point: 53°   Wind: 5mph
Humidity: 100%   Direction: 260°W
Pressure: 29.8"   Gusts: NA
Location:  43.58°N, 85.45°W
Report Text: KRQB 251054Z AUTO 26004KT 7SM OVC010 12/12 A2980 RMK AO2 T01180118
Loading
Personal Weather Stations






























Interactive Weather Map
Tropical Storm Tracking
New forecast layout! Learn more

10-Day Weather Forecast

Advertisements
Track Severe Weather on mobile